sensor_id;sensor_type;location;lat;lon;timestamp;temperature;humidity
64143;DHT22;50437;51.970;5.904;2023-11-21T00:01:57;7.00;99.90
64143;DHT22;50437;51.970;5.904;2023-11-21T00:04:23;7.00;99.90
64143;DHT22;50437;51.970;5.904;2023-11-21T00:06:50;7.00;99.90
64143;DHT22;50437;51.970;5.904;2023-11-21T00:09:16;7.00;99.90
64143;DHT22;50437;51.970;5.904;2023-11-21T00:11:43;7.00;99.90
64143;DHT22;50437;51.970;5.904;2023-11-21T00:14:10;7.00;99.90
64143;DHT22;50437;51.970;5.904;2023-11-21T00:16:37;7.00;99.90
64143;DHT22;50437;51.970;5.904;2023-11-21T00:19:03;7.00;99.90
64143;DHT22;50437;51.970;5.904;2023-11-21T00:21:29;6.90;99.90
64143;DHT22;50437;51.970;5.904;2023-11-21T00:23:55;6.90;99.90
64143;DHT22;50437;51.970;5.904;2023-11-21T00:26:22;6.90;99.90
64143;DHT22;50437;51.970;5.904;2023-11-21T00:28:56;6.90;99.90
64143;DHT22;50437;51.970;5.904;2023-11-21T00:31:22;6.90;99.90
64143;DHT22;50437;51.970;5.904;2023-11-21T00:33:48;6.90;99.90
64143;DHT22;50437;51.970;5.904;2023-11-21T00:36:14;6.90;99.90
64143;DHT22;50437;51.970;5.904;2023-11-21T00:38:41;6.90;99.90
64143;DHT22;50437;51.970;5.904;2023-11-21T00:41:07;6.90;99.90
64143;DHT22;50437;51.970;5.904;2023-11-21T00:43:33;7.00;99.90
64143;DHT22;50437;51.970;5.904;2023-11-21T00:46:03;7.00;99.90
64143;DHT22;50437;51.970;5.904;2023-11-21T00:48:29;6.90;99.90
64143;DHT22;50437;51.970;5.904;2023-11-21T00:50:55;7.00;99.90
64143;DHT22;50437;51.970;5.904;2023-11-21T00:53:22;7.00;99.90
64143;DHT22;50437;51.970;5.904;2023-11-21T00:55:48;7.00;99.90
64143;DHT22;50437;51.970;5.904;2023-11-21T00:58:14;7.00;99.90
64143;DHT22;50437;51.970;5.904;2023-11-21T01:00:40;7.10;99.90
64143;DHT22;50437;51.970;5.904;2023-11-21T01:03:07;7.10;99.90
64143;DHT22;50437;51.970;5.904;2023-11-21T01:05:33;7.10;99.90
64143;DHT22;50437;51.970;5.904;2023-11-21T01:08:00;7.10;99.90
64143;DHT22;50437;51.970;5.904;2023-11-21T01:10:26;7.20;99.90
64143;DHT22;50437;51.970;5.904;2023-11-21T01:12:53;7.20;99.90
64143;DHT22;50437;51.970;5.904;2023-11-21T01:15:19;7.30;99.90
64143;DHT22;50437;51.970;5.904;2023-11-21T01:17:47;7.30;99.90
64143;DHT22;50437;51.970;5.904;2023-11-21T01:20:13;7.30;99.90
64143;DHT22;50437;51.970;5.904;2023-11-21T01:22:39;7.30;99.90
64143;DHT22;50437;51.970;5.904;2023-11-21T01:25:06;7.30;99.90
64143;DHT22;50437;51.970;5.904;2023-11-21T01:27:33;7.30;99.90
64143;DHT22;50437;51.970;5.904;2023-11-21T01:30:01;7.40;99.90
64143;DHT22;50437;51.970;5.904;2023-11-21T01:32:27;7.40;99.90
64143;DHT22;50437;51.970;5.904;2023-11-21T01:34:57;7.40;99.90
64143;DHT22;50437;51.970;5.904;2023-11-21T01:37:23;7.40;99.90
64143;DHT22;50437;51.970;5.904;2023-11-21T01:39:52;7.40;99.90
64143;DHT22;50437;51.970;5.904;2023-11-21T01:42:18;7.50;99.90
64143;DHT22;50437;51.970;5.904;2023-11-21T01:44:44;7.50;99.90
64143;DHT22;50437;51.970;5.904;2023-11-21T01:47:12;7.50;99.90
64143;DHT22;50437;51.970;5.904;2023-11-21T01:49:39;7.50;99.90
64143;DHT22;50437;51.970;5.904;2023-11-21T01:52:05;7.50;99.90
64143;DHT22;50437;51.970;5.904;2023-11-21T01:54:32;7.50;99.90
64143;DHT22;50437;51.970;5.904;2023-11-21T01:56:58;7.60;99.90
64143;DHT22;50437;51.970;5.904;2023-11-21T01:59:35;7.60;99.90
64143;DHT22;50437;51.970;5.904;2023-11-21T02:02:05;7.50;99.90
64143;DHT22;50437;51.970;5.904;2023-11-21T02:04:35;7.60;99.90
64143;DHT22;50437;51.970;5.904;2023-11-21T02:07:04;7.60;99.90
64143;DHT22;50437;51.970;5.904;2023-11-21T02:09:33;7.60;99.90
64143;DHT22;50437;51.970;5.904;2023-11-21T02:12:00;7.60;99.90
64143;DHT22;50437;51.970;5.904;2023-11-21T02:14:26;7.60;99.90
64143;DHT22;50437;51.970;5.904;2023-11-21T02:16:53;7.60;99.90
64143;DHT22;50437;51.970;5.904;2023-11-21T02:19:20;7.60;99.90
64143;DHT22;50437;51.970;5.904;2023-11-21T02:21:50;7.60;99.90
64143;DHT22;50437;51.970;5.904;2023-11-21T02:24:21;7.60;99.90
64143;DHT22;50437;51.970;5.904;2023-11-21T02:26:47;7.60;99.90
64143;DHT22;50437;51.970;5.904;2023-11-21T02:29:14;7.60;99.90
64143;DHT22;50437;51.970;5.904;2023-11-21T02:31:42;7.60;99.90
64143;DHT22;50437;51.970;5.904;2023-11-21T02:34:17;7.60;99.90
64143;DHT22;50437;51.970;5.904;2023-11-21T02:36:44;7.60;99.90
64143;DHT22;50437;51.970;5.904;2023-11-21T02:39:11;7.60;99.90
64143;DHT22;50437;51.970;5.904;2023-11-21T02:41:37;7.60;99.90
64143;DHT22;50437;51.970;5.904;2023-11-21T02:44:04;7.60;99.90
64143;DHT22;50437;51.970;5.904;2023-11-21T02:46:35;7.60;99.90
64143;DHT22;50437;51.970;5.904;2023-11-21T02:49:02;7.60;99.90
64143;DHT22;50437;51.970;5.904;2023-11-21T02:51:28;7.70;99.90
64143;DHT22;50437;51.970;5.904;2023-11-21T02:53:54;7.60;99.90
64143;DHT22;50437;51.970;5.904;2023-11-21T02:56:25;7.70;99.90
64143;DHT22;50437;51.970;5.904;2023-11-21T02:58:52;7.80;99.90
64143;DHT22;50437;51.970;5.904;2023-11-21T03:01:18;7.70;99.90
64143;DHT22;50437;51.970;5.904;2023-11-21T03:03:44;7.60;99.90
64143;DHT22;50437;51.970;5.904;2023-11-21T03:06:11;7.70;99.90
64143;DHT22;50437;51.970;5.904;2023-11-21T03:08:37;7.70;99.90
64143;DHT22;50437;51.970;5.904;2023-11-21T03:11:03;7.70;99.90
64143;DHT22;50437;51.970;5.904;2023-11-21T03:13:29;7.70;99.90
64143;DHT22;50437;51.970;5.904;2023-11-21T03:15:59;7.70;99.90
64143;DHT22;50437;51.970;5.904;2023-11-21T03:18:25;7.70;99.90
64143;DHT22;50437;51.970;5.904;2023-11-21T03:20:54;7.60;99.90
64143;DHT22;50437;51.970;5.904;2023-11-21T03:23:20;7.60;99.90
64143;DHT22;50437;51.970;5.904;2023-11-21T03:25:46;7.70;99.90
64143;DHT22;50437;51.970;5.904;2023-11-21T03:28:12;7.70;99.90
64143;DHT22;50437;51.970;5.904;2023-11-21T03:30:38;7.60;99.90
64143;DHT22;50437;51.970;5.904;2023-11-21T03:33:04;7.60;99.90
64143;DHT22;50437;51.970;5.904;2023-11-21T03:35:30;7.60;99.90
64143;DHT22;50437;51.970;5.904;2023-11-21T03:37:57;7.80;99.90
64143;DHT22;50437;51.970;5.904;2023-11-21T03:40:23;7.70;99.90
64143;DHT22;50437;51.970;5.904;2023-11-21T03:42:49;7.60;99.90
64143;DHT22;50437;51.970;5.904;2023-11-21T03:45:15;7.70;99.90
64143;DHT22;50437;51.970;5.904;2023-11-21T03:47:41;7.70;99.90
64143;DHT22;50437;51.970;5.904;2023-11-21T03:50:07;7.60;99.90
64143;DHT22;50437;51.970;5.904;2023-11-21T03:52:36;7.70;99.90
64143;DHT22;50437;51.970;5.904;2023-11-21T03:55:03;7.70;99.90
64143;DHT22;50437;51.970;5.904;2023-11-21T03:57:29;7.60;99.90
64143;DHT22;50437;51.970;5.904;2023-11-21T03:59:55;7.60;99.90
64143;DHT22;50437;51.970;5.904;2023-11-21T04:02:22;7.60;99.90
64143;DHT22;50437;51.970;5.904;2023-11-21T04:04:48;7.70;99.90
64143;DHT22;50437;51.970;5.904;2023-11-21T04:07:14;7.60;99.90
64143;DHT22;50437;51.970;5.904;2023-11-21T04:09:40;7.70;99.90
64143;DHT22;50437;51.970;5.904;2023-11-21T04:12:07;7.60;99.90
64143;DHT22;50437;51.970;5.904;2023-11-21T04:14:35;7.60;99.90
64143;DHT22;50437;51.970;5.904;2023-11-21T04:17:01;7.60;99.90
64143;DHT22;50437;51.970;5.904;2023-11-21T04:19:27;7.50;99.90
64143;DHT22;50437;51.970;5.904;2023-11-21T04:21:53;7.60;99.90
64143;DHT22;50437;51.970;5.904;2023-11-21T04:24:19;7.60;99.90
64143;DHT22;50437;51.970;5.904;2023-11-21T04:26:48;7.60;99.90
64143;DHT22;50437;51.970;5.904;2023-11-21T04:29:14;7.60;99.90
64143;DHT22;50437;51.970;5.904;2023-11-21T04:31:40;7.60;99.90
64143;DHT22;50437;51.970;5.904;2023-11-21T04:34:07;7.40;99.90
64143;DHT22;50437;51.970;5.904;2023-11-21T04:36:33;7.50;99.90
64143;DHT22;50437;51.970;5.904;2023-11-21T04:39:00;7.50;99.90
64143;DHT22;50437;51.970;5.904;2023-11-21T04:41:26;7.50;99.90
64143;DHT22;50437;51.970;5.904;2023-11-21T04:43:52;7.50;99.90
64143;DHT22;50437;51.970;5.904;2023-11-21T04:46:19;7.50;99.90
64143;DHT22;50437;51.970;5.904;2023-11-21T04:48:45;7.50;99.90
64143;DHT22;50437;51.970;5.904;2023-11-21T04:51:11;7.50;99.90
64143;DHT22;50437;51.970;5.904;2023-11-21T04:53:40;7.50;99.90
64143;DHT22;50437;51.970;5.904;2023-11-21T04:56:06;7.50;99.90
64143;DHT22;50437;51.970;5.904;2023-11-21T04:58:32;7.50;99.90
64143;DHT22;50437;51.970;5.904;2023-11-21T05:00:58;7.60;99.90
64143;DHT22;50437;51.970;5.904;2023-11-21T05:03:24;7.60;99.90
64143;DHT22;50437;51.970;5.904;2023-11-21T05:05:51;7.70;99.90
64143;DHT22;50437;51.970;5.904;2023-11-21T05:08:17;7.60;99.90
64143;DHT22;50437;51.970;5.904;2023-11-21T05:10:46;7.60;99.90
64143;DHT22;50437;51.970;5.904;2023-11-21T05:13:12;7.60;99.90
64143;DHT22;50437;51.970;5.904;2023-11-21T05:15:38;7.60;99.90
64143;DHT22;50437;51.970;5.904;2023-11-21T05:18:05;7.60;99.90
64143;DHT22;50437;51.970;5.904;2023-11-21T05:20:32;7.60;99.90
64143;DHT22;50437;51.970;5.904;2023-11-21T05:22:59;7.60;99.90
64143;DHT22;50437;51.970;5.904;2023-11-21T05:25:25;7.60;99.90
64143;DHT22;50437;51.970;5.904;2023-11-21T05:27:51;7.50;99.90
64143;DHT22;50437;51.970;5.904;2023-11-21T05:30:20;7.60;99.90
64143;DHT22;50437;51.970;5.904;2023-11-21T05:32:47;7.60;99.90
64143;DHT22;50437;51.970;5.904;2023-11-21T05:35:13;7.60;99.90
64143;DHT22;50437;51.970;5.904;2023-11-21T05:37:42;7.60;99.90
64143;DHT22;50437;51.970;5.904;2023-11-21T05:40:08;7.50;99.90
64143;DHT22;50437;51.970;5.904;2023-11-21T05:42:37;7.60;99.90
64143;DHT22;50437;51.970;5.904;2023-11-21T05:45:04;7.60;99.90
64143;DHT22;50437;51.970;5.904;2023-11-21T05:47:40;7.60;99.90
64143;DHT22;50437;51.970;5.904;2023-11-21T05:50:09;7.60;99.90
64143;DHT22;50437;51.970;5.904;2023-11-21T05:52:41;7.60;99.90
64143;DHT22;50437;51.970;5.904;2023-11-21T05:55:08;7.60;99.90
64143;DHT22;50437;51.970;5.904;2023-11-21T05:57:37;7.60;99.90
64143;DHT22;50437;51.970;5.904;2023-11-21T06:02:36;7.70;99.90
64143;DHT22;50437;51.970;5.904;2023-11-21T06:05:02;7.60;99.90
64143;DHT22;50437;51.970;5.904;2023-11-21T06:07:30;7.70;99.90
64143;DHT22;50437;51.970;5.904;2023-11-21T06:09:56;7.70;99.90
64143;DHT22;50437;51.970;5.904;2023-11-21T06:12:22;7.70;99.90
64143;DHT22;50437;51.970;5.904;2023-11-21T06:14:48;7.60;99.90
64143;DHT22;50437;51.970;5.904;2023-11-21T06:17:15;7.70;99.90
64143;DHT22;50437;51.970;5.904;2023-11-21T06:19:41;7.70;99.90
64143;DHT22;50437;51.970;5.904;2023-11-21T06:22:07;7.70;99.90
64143;DHT22;50437;51.970;5.904;2023-11-21T06:24:33;7.70;99.90
64143;DHT22;50437;51.970;5.904;2023-11-21T06:27:00;7.70;99.90
64143;DHT22;50437;51.970;5.904;2023-11-21T06:29:26;7.80;99.90
64143;DHT22;50437;51.970;5.904;2023-11-21T06:31:52;7.70;99.90
64143;DHT22;50437;51.970;5.904;2023-11-21T06:34:21;7.70;99.90
64143;DHT22;50437;51.970;5.904;2023-11-21T06:36:47;7.80;99.90
64143;DHT22;50437;51.970;5.904;2023-11-21T06:39:13;7.80;99.90
64143;DHT22;50437;51.970;5.904;2023-11-21T06:41:41;7.80;99.90
64143;DHT22;50437;51.970;5.904;2023-11-21T06:44:07;7.90;99.90
64143;DHT22;50437;51.970;5.904;2023-11-21T06:46:34;7.80;99.90
64143;DHT22;50437;51.970;5.904;2023-11-21T06:49:00;7.80;99.90
64143;DHT22;50437;51.970;5.904;2023-11-21T06:51:26;7.80;99.90
64143;DHT22;50437;51.970;5.904;2023-11-21T06:53:55;7.90;99.90
64143;DHT22;50437;51.970;5.904;2023-11-21T06:56:21;7.90;99.90
64143;DHT22;50437;51.970;5.904;2023-11-21T06:58:50;7.90;99.90
64143;DHT22;50437;51.970;5.904;2023-11-21T07:01:19;7.90;99.90
64143;DHT22;50437;51.970;5.904;2023-11-21T07:03:46;7.90;99.90
64143;DHT22;50437;51.970;5.904;2023-11-21T07:06:12;7.90;99.90
64143;DHT22;50437;51.970;5.904;2023-11-21T07:08:38;8.00;99.90
64143;DHT22;50437;51.970;5.904;2023-11-21T07:11:04;8.00;99.90
64143;DHT22;50437;51.970;5.904;2023-11-21T07:13:30;8.00;99.90
64143;DHT22;50437;51.970;5.904;2023-11-21T07:16:02;7.90;99.90
64143;DHT22;50437;51.970;5.904;2023-11-21T07:18:31;8.00;99.90
64143;DHT22;50437;51.970;5.904;2023-11-21T07:20:57;8.10;99.90
64143;DHT22;50437;51.970;5.904;2023-11-21T07:23:24;8.10;99.90
64143;DHT22;50437;51.970;5.904;2023-11-21T07:25:50;8.00;99.90
64143;DHT22;50437;51.970;5.904;2023-11-21T07:28:16;8.10;99.90
64143;DHT22;50437;51.970;5.904;2023-11-21T07:30:43;8.00;99.90
64143;DHT22;50437;51.970;5.904;2023-11-21T07:33:11;8.10;99.90
64143;DHT22;50437;51.970;5.904;2023-11-21T07:35:38;8.10;99.90
64143;DHT22;50437;51.970;5.904;2023-11-21T07:38:04;8.10;99.90
64143;DHT22;50437;51.970;5.904;2023-11-21T07:40:30;8.10;99.90
64143;DHT22;50437;51.970;5.904;2023-11-21T07:42:56;8.10;99.90
64143;DHT22;50437;51.970;5.904;2023-11-21T07:45:23;8.10;99.90
64143;DHT22;50437;51.970;5.904;2023-11-21T07:47:49;8.20;99.90
64143;DHT22;50437;51.970;5.904;2023-11-21T07:50:15;8.20;99.90
64143;DHT22;50437;51.970;5.904;2023-11-21T07:52:42;8.20;99.90
64143;DHT22;50437;51.970;5.904;2023-11-21T07:55:08;8.30;99.90
64143;DHT22;50437;51.970;5.904;2023-11-21T07:57:34;8.20;99.90
64143;DHT22;50437;51.970;5.904;2023-11-21T08:00:00;8.30;99.90
64143;DHT22;50437;51.970;5.904;2023-11-21T08:02:26;8.30;99.90
64143;DHT22;50437;51.970;5.904;2023-11-21T08:04:53;8.30;99.90
64143;DHT22;50437;51.970;5.904;2023-11-21T08:07:19;8.30;99.90
64143;DHT22;50437;51.970;5.904;2023-11-21T08:09:45;8.20;99.90
64143;DHT22;50437;51.970;5.904;2023-11-21T08:12:12;8.30;99.90
64143;DHT22;50437;51.970;5.904;2023-11-21T08:14:38;8.30;99.90
64143;DHT22;50437;51.970;5.904;2023-11-21T08:17:09;8.30;99.90
64143;DHT22;50437;51.970;5.904;2023-11-21T08:19:36;8.40;99.90
64143;DHT22;50437;51.970;5.904;2023-11-21T08:22:03;8.40;99.90
64143;DHT22;50437;51.970;5.904;2023-11-21T08:24:29;8.40;99.90
64143;DHT22;50437;51.970;5.904;2023-11-21T08:26:55;8.40;99.90
64143;DHT22;50437;51.970;5.904;2023-11-21T08:29:22;8.40;99.90
64143;DHT22;50437;51.970;5.904;2023-11-21T08:31:49;8.40;99.90
64143;DHT22;50437;51.970;5.904;2023-11-21T08:34:15;8.50;99.90
64143;DHT22;50437;51.970;5.904;2023-11-21T08:36:44;8.50;99.90
64143;DHT22;50437;51.970;5.904;2023-11-21T08:39:11;8.50;99.90
64143;DHT22;50437;51.970;5.904;2023-11-21T08:41:39;8.50;99.90
64143;DHT22;50437;51.970;5.904;2023-11-21T08:44:05;8.50;99.90
64143;DHT22;50437;51.970;5.904;2023-11-21T08:46:33;8.60;99.90
64143;DHT22;50437;51.970;5.904;2023-11-21T08:49:00;8.50;99.90
64143;DHT22;50437;51.970;5.904;2023-11-21T08:51:26;8.60;99.90
64143;DHT22;50437;51.970;5.904;2023-11-21T08:53:52;8.50;99.90
64143;DHT22;50437;51.970;5.904;2023-11-21T08:56:22;8.60;99.90
64143;DHT22;50437;51.970;5.904;2023-11-21T08:58:48;8.60;99.90
64143;DHT22;50437;51.970;5.904;2023-11-21T09:01:16;8.70;99.90
64143;DHT22;50437;51.970;5.904;2023-11-21T09:03:43;8.70;99.90
64143;DHT22;50437;51.970;5.904;2023-11-21T09:06:09;8.70;99.90
64143;DHT22;50437;51.970;5.904;2023-11-21T09:08:35;8.80;99.90
64143;DHT22;50437;51.970;5.904;2023-11-21T09:11:02;8.90;99.90
64143;DHT22;50437;51.970;5.904;2023-11-21T09:13:28;8.80;99.90
64143;DHT22;50437;51.970;5.904;2023-11-21T09:15:55;8.90;99.90
64143;DHT22;50437;51.970;5.904;2023-11-21T09:18:21;8.90;99.90
64143;DHT22;50437;51.970;5.904;2023-11-21T09:20:47;8.90;99.90
64143;DHT22;50437;51.970;5.904;2023-11-21T09:23:13;8.90;99.90
64143;DHT22;50437;51.970;5.904;2023-11-21T09:25:39;8.80;99.90
64143;DHT22;50437;51.970;5.904;2023-11-21T09:28:06;8.90;99.90
64143;DHT22;50437;51.970;5.904;2023-11-21T09:30:34;8.90;99.90
64143;DHT22;50437;51.970;5.904;2023-11-21T09:33:01;8.90;99.90
64143;DHT22;50437;51.970;5.904;2023-11-21T09:35:27;8.80;99.90
64143;DHT22;50437;51.970;5.904;2023-11-21T09:37:53;8.90;99.90
64143;DHT22;50437;51.970;5.904;2023-11-21T09:40:22;8.90;99.90
64143;DHT22;50437;51.970;5.904;2023-11-21T09:45:27;9.00;99.90
64143;DHT22;50437;51.970;5.904;2023-11-21T09:47:55;9.00;99.90
64143;DHT22;50437;51.970;5.904;2023-11-21T09:50:25;9.10;99.90
64143;DHT22;50437;51.970;5.904;2023-11-21T09:55:24;9.20;99.90
64143;DHT22;50437;51.970;5.904;2023-11-21T09:57:56;9.20;99.90
64143;DHT22;50437;51.970;5.904;2023-11-21T10:00:26;9.30;99.90
64143;DHT22;50437;51.970;5.904;2023-11-21T10:02:53;9.30;99.90
64143;DHT22;50437;51.970;5.904;2023-11-21T10:05:20;9.30;99.90
64143;DHT22;50437;51.970;5.904;2023-11-21T10:07:48;9.40;99.90
64143;DHT22;50437;51.970;5.904;2023-11-21T10:10:18;9.60;99.90
64143;DHT22;50437;51.970;5.904;2023-11-21T10:12:48;9.70;99.90
64143;DHT22;50437;51.970;5.904;2023-11-21T10:15:17;9.70;99.90
64143;DHT22;50437;51.970;5.904;2023-11-21T10:17:43;10.00;99.90
64143;DHT22;50437;51.970;5.904;2023-11-21T10:20:10;9.90;99.90
64143;DHT22;50437;51.970;5.904;2023-11-21T10:22:42;9.80;99.90
64143;DHT22;50437;51.970;5.904;2023-11-21T10:25:09;9.90;99.90
64143;DHT22;50437;51.970;5.904;2023-11-21T10:27:36;10.00;99.90
64143;DHT22;50437;51.970;5.904;2023-11-21T10:30:02;10.00;99.90
64143;DHT22;50437;51.970;5.904;2023-11-21T10:32:30;10.10;99.90
64143;DHT22;50437;51.970;5.904;2023-11-21T10:34:59;10.00;99.90
64143;DHT22;50437;51.970;5.904;2023-11-21T10:37:32;9.90;99.90
64143;DHT22;50437;51.970;5.904;2023-11-21T10:39:58;10.00;99.90
64143;DHT22;50437;51.970;5.904;2023-11-21T10:42:26;9.90;99.90
64143;DHT22;50437;51.970;5.904;2023-11-21T10:44:55;10.00;99.90
64143;DHT22;50437;51.970;5.904;2023-11-21T10:47:22;10.20;99.90
64143;DHT22;50437;51.970;5.904;2023-11-21T10:49:49;10.20;99.90
64143;DHT22;50437;51.970;5.904;2023-11-21T10:52:15;10.20;99.90
64143;DHT22;50437;51.970;5.904;2023-11-21T10:54:43;10.20;99.90
64143;DHT22;50437;51.970;5.904;2023-11-21T10:57:13;10.20;99.90
64143;DHT22;50437;51.970;5.904;2023-11-21T10:59:41;10.20;99.90
64143;DHT22;50437;51.970;5.904;2023-11-21T11:02:23;10.20;99.90
64143;DHT22;50437;51.970;5.904;2023-11-21T11:04:53;10.10;99.90
64143;DHT22;50437;51.970;5.904;2023-11-21T11:07:21;10.10;99.90
64143;DHT22;50437;51.970;5.904;2023-11-21T11:09:52;10.10;99.90
64143;DHT22;50437;51.970;5.904;2023-11-21T11:12:18;10.10;99.90
64143;DHT22;50437;51.970;5.904;2023-11-21T11:14:45;10.10;99.90
64143;DHT22;50437;51.970;5.904;2023-11-21T11:17:11;10.10;99.90
64143;DHT22;50437;51.970;5.904;2023-11-21T11:19:38;10.00;99.90
64143;DHT22;50437;51.970;5.904;2023-11-21T11:27:57;9.80;99.90
64143;DHT22;50437;51.970;5.904;2023-11-21T11:38:02;9.70;99.90
64143;DHT22;50437;51.970;5.904;2023-11-21T11:40:38;9.90;99.90
64143;DHT22;50437;51.970;5.904;2023-11-21T11:43:05;9.80;99.90
64143;DHT22;50437;51.970;5.904;2023-11-21T11:45:33;9.90;99.90
64143;DHT22;50437;51.970;5.904;2023-11-21T11:48:00;9.90;99.90
64143;DHT22;50437;51.970;5.904;2023-11-21T11:50:26;9.90;99.90
64143;DHT22;50437;51.970;5.904;2023-11-21T11:52:57;9.90;99.90
64143;DHT22;50437;51.970;5.904;2023-11-21T11:55:37;9.90;99.90
64143;DHT22;50437;51.970;5.904;2023-11-21T11:58:04;9.90;99.90
64143;DHT22;50437;51.970;5.904;2023-11-21T12:00:34;10.00;99.90
64143;DHT22;50437;51.970;5.904;2023-11-21T12:03:03;10.10;99.90
64143;DHT22;50437;51.970;5.904;2023-11-21T12:05:30;10.10;99.90
64143;DHT22;50437;51.970;5.904;2023-11-21T12:08:05;10.10;99.90
64143;DHT22;50437;51.970;5.904;2023-11-21T12:10:32;10.20;99.90
64143;DHT22;50437;51.970;5.904;2023-11-21T12:12:59;10.20;99.90
64143;DHT22;50437;51.970;5.904;2023-11-21T12:15:25;10.20;99.90
64143;DHT22;50437;51.970;5.904;2023-11-21T12:17:52;10.10;99.90
64143;DHT22;50437;51.970;5.904;2023-11-21T12:20:19;10.00;99.90
64143;DHT22;50437;51.970;5.904;2023-11-21T12:22:52;9.90;99.90
64143;DHT22;50437;51.970;5.904;2023-11-21T12:25:22;10.00;99.90
64143;DHT22;50437;51.970;5.904;2023-11-21T12:27:49;10.00;99.90
64143;DHT22;50437;51.970;5.904;2023-11-21T12:30:16;10.00;99.90
64143;DHT22;50437;51.970;5.904;2023-11-21T12:32:43;10.00;99.90
64143;DHT22;50437;51.970;5.904;2023-11-21T12:35:11;9.90;99.90
64143;DHT22;50437;51.970;5.904;2023-11-21T12:37:38;9.90;99.90
64143;DHT22;50437;51.970;5.904;2023-11-21T12:40:07;9.90;99.90
64143;DHT22;50437;51.970;5.904;2023-11-21T12:42:37;9.90;99.90
64143;DHT22;50437;51.970;5.904;2023-11-21T12:45:07;10.10;99.90
64143;DHT22;50437;51.970;5.904;2023-11-21T12:47:34;10.10;99.90
64143;DHT22;50437;51.970;5.904;2023-11-21T12:50:02;10.00;99.90
64143;DHT22;50437;51.970;5.904;2023-11-21T12:52:28;10.00;99.90
64143;DHT22;50437;51.970;5.904;2023-11-21T12:54:54;9.90;99.90
64143;DHT22;50437;51.970;5.904;2023-11-21T12:57:25;10.00;99.90
64143;DHT22;50437;51.970;5.904;2023-11-21T12:59:58;10.00;99.90
64143;DHT22;50437;51.970;5.904;2023-11-21T13:02:31;10.00;99.90
64143;DHT22;50437;51.970;5.904;2023-11-21T13:04:57;10.00;99.90
64143;DHT22;50437;51.970;5.904;2023-11-21T13:07:24;9.90;99.90
64143;DHT22;50437;51.970;5.904;2023-11-21T13:09:52;9.90;99.90
64143;DHT22;50437;51.970;5.904;2023-11-21T13:12:23;9.90;99.90
64143;DHT22;50437;51.970;5.904;2023-11-21T13:14:50;9.90;99.90
64143;DHT22;50437;51.970;5.904;2023-11-21T13:17:17;9.90;99.90
64143;DHT22;50437;51.970;5.904;2023-11-21T13:19:46;9.90;99.90
64143;DHT22;50437;51.970;5.904;2023-11-21T13:22:12;9.70;99.90
64143;DHT22;50437;51.970;5.904;2023-11-21T13:24:38;9.80;99.90
64143;DHT22;50437;51.970;5.904;2023-11-21T13:27:04;9.80;99.90
64143;DHT22;50437;51.970;5.904;2023-11-21T13:29:30;9.80;99.90
64143;DHT22;50437;51.970;5.904;2023-11-21T13:31:56;9.70;99.90
64143;DHT22;50437;51.970;5.904;2023-11-21T13:34:22;9.80;99.90
64143;DHT22;50437;51.970;5.904;2023-11-21T13:36:51;9.80;99.90
64143;DHT22;50437;51.970;5.904;2023-11-21T13:39:24;9.80;99.90
64143;DHT22;50437;51.970;5.904;2023-11-21T13:41:51;9.90;99.90
64143;DHT22;50437;51.970;5.904;2023-11-21T13:44:23;9.90;99.90
64143;DHT22;50437;51.970;5.904;2023-11-21T13:46:54;9.90;99.90
64143;DHT22;50437;51.970;5.904;2023-11-21T13:49:22;10.00;99.90
64143;DHT22;50437;51.970;5.904;2023-11-21T13:51:48;10.00;99.90
64143;DHT22;50437;51.970;5.904;2023-11-21T13:54:19;9.90;99.90
64143;DHT22;50437;51.970;5.904;2023-11-21T13:56:47;9.90;99.90
64143;DHT22;50437;51.970;5.904;2023-11-21T13:59:15;9.90;99.90
64143;DHT22;50437;51.970;5.904;2023-11-21T14:01:54;9.90;99.90
64143;DHT22;50437;51.970;5.904;2023-11-21T14:04:26;9.90;99.90
64143;DHT22;50437;51.970;5.904;2023-11-21T14:06:58;9.80;99.90
64143;DHT22;50437;51.970;5.904;2023-11-21T14:09:34;9.70;99.90
64143;DHT22;50437;51.970;5.904;2023-11-21T14:12:09;9.50;99.90
64143;DHT22;50437;51.970;5.904;2023-11-21T14:14:40;9.40;99.90
64143;DHT22;50437;51.970;5.904;2023-11-21T14:17:10;9.30;99.90
64143;DHT22;50437;51.970;5.904;2023-11-21T14:19:36;9.30;99.90
64143;DHT22;50437;51.970;5.904;2023-11-21T14:22:06;9.30;99.90
64143;DHT22;50437;51.970;5.904;2023-11-21T14:24:35;9.20;99.90
64143;DHT22;50437;51.970;5.904;2023-11-21T14:27:01;9.30;99.90
64143;DHT22;50437;51.970;5.904;2023-11-21T14:29:27;9.20;99.90
64143;DHT22;50437;51.970;5.904;2023-11-21T14:31:55;9.20;99.90
64143;DHT22;50437;51.970;5.904;2023-11-21T14:34:23;9.20;99.90
64143;DHT22;50437;51.970;5.904;2023-11-21T14:36:52;9.20;99.90
64143;DHT22;50437;51.970;5.904;2023-11-21T14:39:18;9.20;99.90
64143;DHT22;50437;51.970;5.904;2023-11-21T14:41:53;9.20;99.90
64143;DHT22;50437;51.970;5.904;2023-11-21T14:44:22;9.20;99.90
64143;DHT22;50437;51.970;5.904;2023-11-21T14:46:52;9.30;99.90
64143;DHT22;50437;51.970;5.904;2023-11-21T14:49:20;9.20;99.90
64143;DHT22;50437;51.970;5.904;2023-11-21T14:51:48;9.30;99.90
64143;DHT22;50437;51.970;5.904;2023-11-21T14:54:29;9.20;99.90
64143;DHT22;50437;51.970;5.904;2023-11-21T14:57:16;9.10;99.90
64143;DHT22;50437;51.970;5.904;2023-11-21T14:59:46;9.10;99.90
64143;DHT22;50437;51.970;5.904;2023-11-21T15:02:15;9.10;99.90
64143;DHT22;50437;51.970;5.904;2023-11-21T15:04:42;9.10;99.90
64143;DHT22;50437;51.970;5.904;2023-11-21T15:07:09;9.00;99.90
64143;DHT22;50437;51.970;5.904;2023-11-21T15:09:37;9.00;99.90
64143;DHT22;50437;51.970;5.904;2023-11-21T15:12:10;9.00;99.90
64143;DHT22;50437;51.970;5.904;2023-11-21T15:14:47;9.00;99.90
64143;DHT22;50437;51.970;5.904;2023-11-21T15:17:15;8.80;99.90
64143;DHT22;50437;51.970;5.904;2023-11-21T15:19:48;8.80;99.90
64143;DHT22;50437;51.970;5.904;2023-11-21T15:22:14;8.70;99.90
64143;DHT22;50437;51.970;5.904;2023-11-21T15:24:41;8.80;99.90
64143;DHT22;50437;51.970;5.904;2023-11-21T15:27:10;8.70;99.90
64143;DHT22;50437;51.970;5.904;2023-11-21T15:29:38;8.70;99.90
64143;DHT22;50437;51.970;5.904;2023-11-21T15:32:05;8.60;99.90
64143;DHT22;50437;51.970;5.904;2023-11-21T15:34:32;8.50;99.90
64143;DHT22;50437;51.970;5.904;2023-11-21T15:36:58;8.50;99.90
64143;DHT22;50437;51.970;5.904;2023-11-21T15:39:24;8.50;99.90
64143;DHT22;50437;51.970;5.904;2023-11-21T15:41:55;8.50;99.90
64143;DHT22;50437;51.970;5.904;2023-11-21T15:44:21;8.40;99.90
64143;DHT22;50437;51.970;5.904;2023-11-21T15:46:48;8.40;99.90
64143;DHT22;50437;51.970;5.904;2023-11-21T15:49:17;8.30;99.90
64143;DHT22;50437;51.970;5.904;2023-11-21T15:51:47;8.30;99.90
64143;DHT22;50437;51.970;5.904;2023-11-21T15:54:19;8.20;99.90
64143;DHT22;50437;51.970;5.904;2023-11-21T15:56:49;8.20;99.90
64143;DHT22;50437;51.970;5.904;2023-11-21T15:59:15;8.20;99.90
64143;DHT22;50437;51.970;5.904;2023-11-21T16:01:42;8.10;99.90
64143;DHT22;50437;51.970;5.904;2023-11-21T16:04:12;8.10;99.90
64143;DHT22;50437;51.970;5.904;2023-11-21T16:06:41;8.00;99.90
64143;DHT22;50437;51.970;5.904;2023-11-21T16:09:07;8.00;99.90